sensor_id;sensor_type;location;lat;lon;timestamp;P1;durP1;ratioP1;P2;durP2;ratioP2
8478;SDS011;4276;49.354;6.804;2024-02-21T00:01:15;9.05;;;6.93;;
8478;SDS011;4276;49.354;6.804;2024-02-21T00:03:44;10.85;;;7.00;;
8478;SDS011;4276;49.354;6.804;2024-02-21T00:06:11;11.05;;;6.50;;
8478;SDS011;4276;49.354;6.804;2024-02-21T00:08:37;9.88;;;6.55;;
8478;SDS011;4276;49.354;6.804;2024-02-21T00:11:04;7.25;;;5.75;;
8478;SDS011;4276;49.354;6.804;2024-02-21T00:13:31;8.93;;;6.90;;
8478;SDS011;4276;49.354;6.804;2024-02-21T00:16:02;8.82;;;6.53;;
8478;SDS011;4276;49.354;6.804;2024-02-21T00:18:29;9.52;;;7.38;;
8478;SDS011;4276;49.354;6.804;2024-02-21T00:20:56;9.15;;;6.82;;
8478;SDS011;4276;49.354;6.804;2024-02-21T00:23:22;10.75;;;7.30;;
8478;SDS011;4276;49.354;6.804;2024-02-21T00:25:49;12.73;;;7.63;;
8478;SDS011;4276;49.354;6.804;2024-02-21T00:28:16;11.70;;;7.78;;
8478;SDS011;4276;49.354;6.804;2024-02-21T00:30:43;10.45;;;6.68;;
8478;SDS011;4276;49.354;6.804;2024-02-21T00:33:10;9.23;;;7.55;;
8478;SDS011;4276;49.354;6.804;2024-02-21T00:35:37;11.05;;;8.32;;
8478;SDS011;4276;49.354;6.804;2024-02-21T00:38:03;11.13;;;8.15;;
8478;SDS011;4276;49.354;6.804;2024-02-21T00:40:30;7.53;;;6.30;;
8478;SDS011;4276;49.354;6.804;2024-02-21T00:42:57;11.52;;;7.25;;
8478;SDS011;4276;49.354;6.804;2024-02-21T00:45:24;13.48;;;8.25;;
8478;SDS011;4276;49.354;6.804;2024-02-21T00:47:50;9.73;;;7.47;;
8478;SDS011;4276;49.354;6.804;2024-02-21T00:50:17;9.60;;;7.50;;
8478;SDS011;4276;49.354;6.804;2024-02-21T00:52:44;9.68;;;7.53;;
8478;SDS011;4276;49.354;6.804;2024-02-21T00:55:11;11.18;;;7.25;;
8478;SDS011;4276;49.354;6.804;2024-02-21T00:57:38;7.88;;;6.28;;
8478;SDS011;4276;49.354;6.804;2024-02-21T01:00:05;11.20;;;7.10;;
8478;SDS011;4276;49.354;6.804;2024-02-21T01:02:32;9.50;;;6.57;;
8478;SDS011;4276;49.354;6.804;2024-02-21T01:04:58;10.88;;;7.32;;
8478;SDS011;4276;49.354;6.804;2024-02-21T01:07:25;9.60;;;7.05;;
8478;SDS011;4276;49.354;6.804;2024-02-21T01:09:52;11.05;;;6.63;;
8478;SDS011;4276;49.354;6.804;2024-02-21T01:12:19;11.20;;;6.70;;
8478;SDS011;4276;49.354;6.804;2024-02-21T01:14:45;13.75;;;6.95;;
8478;SDS011;4276;49.354;6.804;2024-02-21T01:17:12;9.55;;;6.55;;
8478;SDS011;4276;49.354;6.804;2024-02-21T01:19:39;12.50;;;6.93;;
8478;SDS011;4276;49.354;6.804;2024-02-21T01:22:05;9.45;;;6.75;;
8478;SDS011;4276;49.354;6.804;2024-02-21T01:24:32;9.30;;;6.47;;
8478;SDS011;4276;49.354;6.804;2024-02-21T01:26:59;9.38;;;6.70;;
8478;SDS011;4276;49.354;6.804;2024-02-21T01:29:25;9.57;;;6.38;;
8478;SDS011;4276;49.354;6.804;2024-02-21T01:31:52;12.32;;;7.15;;
8478;SDS011;4276;49.354;6.804;2024-02-21T01:34:18;8.93;;;6.80;;
8478;SDS011;4276;49.354;6.804;2024-02-21T01:36:45;8.15;;;6.45;;
8478;SDS011;4276;49.354;6.804;2024-02-21T01:39:12;9.90;;;6.40;;
8478;SDS011;4276;49.354;6.804;2024-02-21T01:41:38;9.30;;;6.47;;
8478;SDS011;4276;49.354;6.804;2024-02-21T01:44:05;10.98;;;6.80;;
8478;SDS011;4276;49.354;6.804;2024-02-21T01:46:31;11.88;;;6.78;;
8478;SDS011;4276;49.354;6.804;2024-02-21T01:48:58;11.93;;;6.72;;
8478;SDS011;4276;49.354;6.804;2024-02-21T01:51:25;10.43;;;7.05;;
8478;SDS011;4276;49.354;6.804;2024-02-21T01:53:51;11.77;;;6.80;;
8478;SDS011;4276;49.354;6.804;2024-02-21T01:56:19;9.05;;;6.78;;
8478;SDS011;4276;49.354;6.804;2024-02-21T01:58:46;7.90;;;6.38;;
8478;SDS011;4276;49.354;6.804;2024-02-21T02:01:13;9.35;;;6.53;;
8478;SDS011;4276;49.354;6.804;2024-02-21T02:03:45;6.97;;;5.63;;
8478;SDS011;4276;49.354;6.804;2024-02-21T02:06:11;8.57;;;6.03;;
8478;SDS011;4276;49.354;6.804;2024-02-21T02:08:38;12.98;;;6.22;;
8478;SDS011;4276;49.354;6.804;2024-02-21T02:11:05;10.07;;;6.30;;
8478;SDS011;4276;49.354;6.804;2024-02-21T02:13:35;11.05;;;7.35;;
8478;SDS011;4276;49.354;6.804;2024-02-21T02:16:02;8.70;;;6.50;;
8478;SDS011;4276;49.354;6.804;2024-02-21T02:18:30;10.30;;;6.63;;
8478;SDS011;4276;49.354;6.804;2024-02-21T02:20:56;8.65;;;6.40;;
8478;SDS011;4276;49.354;6.804;2024-02-21T02:23:30;10.98;;;7.13;;
8478;SDS011;4276;49.354;6.804;2024-02-21T02:25:58;9.05;;;6.50;;
8478;SDS011;4276;49.354;6.804;2024-02-21T02:28:26;11.07;;;6.07;;
8478;SDS011;4276;49.354;6.804;2024-02-21T02:30:53;14.45;;;6.78;;
8478;SDS011;4276;49.354;6.804;2024-02-21T02:33:19;8.60;;;6.25;;
8478;SDS011;4276;49.354;6.804;2024-02-21T02:35:46;11.65;;;7.28;;
8478;SDS011;4276;49.354;6.804;2024-02-21T02:38:13;12.15;;;6.70;;
8478;SDS011;4276;49.354;6.804;2024-02-21T02:40:41;8.38;;;6.38;;
8478;SDS011;4276;49.354;6.804;2024-02-21T02:43:09;9.00;;;6.60;;
8478;SDS011;4276;49.354;6.804;2024-02-21T02:45:35;10.88;;;6.88;;
8478;SDS011;4276;49.354;6.804;2024-02-21T02:48:02;8.55;;;6.30;;
8478;SDS011;4276;49.354;6.804;2024-02-21T02:50:30;9.48;;;6.68;;
8478;SDS011;4276;49.354;6.804;2024-02-21T02:52:57;8.07;;;6.10;;
8478;SDS011;4276;49.354;6.804;2024-02-21T02:55:24;6.13;;;5.22;;
8478;SDS011;4276;49.354;6.804;2024-02-21T02:57:52;8.15;;;5.90;;
8478;SDS011;4276;49.354;6.804;2024-02-21T03:00:19;8.52;;;5.47;;
8478;SDS011;4276;49.354;6.804;2024-02-21T03:02:46;9.35;;;5.53;;
8478;SDS011;4276;49.354;6.804;2024-02-21T03:05:15;9.73;;;5.40;;
8478;SDS011;4276;49.354;6.804;2024-02-21T03:07:43;9.45;;;6.07;;
8478;SDS011;4276;49.354;6.804;2024-02-21T03:10:10;9.35;;;5.70;;
8478;SDS011;4276;49.354;6.804;2024-02-21T03:12:38;10.43;;;6.00;;
8478;SDS011;4276;49.354;6.804;2024-02-21T03:15:05;10.00;;;6.22;;
8478;SDS011;4276;49.354;6.804;2024-02-21T03:17:32;10.20;;;5.70;;
8478;SDS011;4276;49.354;6.804;2024-02-21T03:20:01;7.80;;;5.40;;
8478;SDS011;4276;49.354;6.804;2024-02-21T03:22:31;8.73;;;5.30;;
8478;SDS011;4276;49.354;6.804;2024-02-21T03:24:59;7.85;;;5.22;;
8478;SDS011;4276;49.354;6.804;2024-02-21T03:27:25;9.10;;;5.90;;
8478;SDS011;4276;49.354;6.804;2024-02-21T03:29:52;8.60;;;5.47;;
8478;SDS011;4276;49.354;6.804;2024-02-21T03:32:18;9.20;;;5.60;;
8478;SDS011;4276;49.354;6.804;2024-02-21T03:34:45;6.40;;;5.60;;
8478;SDS011;4276;49.354;6.804;2024-02-21T03:37:11;11.10;;;6.00;;
8478;SDS011;4276;49.354;6.804;2024-02-21T03:39:40;12.30;;;6.13;;
8478;SDS011;4276;49.354;6.804;2024-02-21T03:42:07;9.07;;;5.47;;
8478;SDS011;4276;49.354;6.804;2024-02-21T03:44:33;8.50;;;5.85;;
8478;SDS011;4276;49.354;6.804;2024-02-21T03:47:00;9.38;;;6.00;;
8478;SDS011;4276;49.354;6.804;2024-02-21T03:49:27;10.63;;;6.05;;
8478;SDS011;4276;49.354;6.804;2024-02-21T03:51:54;10.70;;;6.03;;
8478;SDS011;4276;49.354;6.804;2024-02-21T03:54:20;9.15;;;6.10;;
8478;SDS011;4276;49.354;6.804;2024-02-21T03:56:47;7.45;;;5.03;;
8478;SDS011;4276;49.354;6.804;2024-02-21T03:59:15;10.98;;;6.00;;
8478;SDS011;4276;49.354;6.804;2024-02-21T04:01:41;9.35;;;5.13;;
8478;SDS011;4276;49.354;6.804;2024-02-21T04:04:08;10.02;;;5.90;;
8478;SDS011;4276;49.354;6.804;2024-02-21T04:06:34;10.20;;;5.78;;
8478;SDS011;4276;49.354;6.804;2024-02-21T04:09:01;9.00;;;4.97;;
8478;SDS011;4276;49.354;6.804;2024-02-21T04:11:27;8.40;;;5.15;;
8478;SDS011;4276;49.354;6.804;2024-02-21T04:13:54;6.13;;;4.63;;
8478;SDS011;4276;49.354;6.804;2024-02-21T04:16:20;7.07;;;5.10;;
8478;SDS011;4276;49.354;6.804;2024-02-21T04:18:47;9.50;;;5.28;;
8478;SDS011;4276;49.354;6.804;2024-02-21T04:21:14;9.25;;;5.70;;
8478;SDS011;4276;49.354;6.804;2024-02-21T04:23:42;8.68;;;4.75;;
8478;SDS011;4276;49.354;6.804;2024-02-21T04:26:09;8.40;;;6.20;;
8478;SDS011;4276;49.354;6.804;2024-02-21T04:28:35;8.10;;;5.80;;
8478;SDS011;4276;49.354;6.804;2024-02-21T04:31:02;8.02;;;5.32;;
8478;SDS011;4276;49.354;6.804;2024-02-21T04:33:28;7.28;;;4.97;;
8478;SDS011;4276;49.354;6.804;2024-02-21T04:35:55;8.85;;;5.55;;
8478;SDS011;4276;49.354;6.804;2024-02-21T04:38:21;8.93;;;5.10;;
8478;SDS011;4276;49.354;6.804;2024-02-21T04:40:48;7.32;;;5.22;;
8478;SDS011;4276;49.354;6.804;2024-02-21T04:43:15;8.35;;;5.15;;
8478;SDS011;4276;49.354;6.804;2024-02-21T04:45:41;10.52;;;5.65;;
8478;SDS011;4276;49.354;6.804;2024-02-21T04:48:08;10.30;;;5.20;;
8478;SDS011;4276;49.354;6.804;2024-02-21T04:50:34;7.05;;;4.68;;
8478;SDS011;4276;49.354;6.804;2024-02-21T04:53:01;8.13;;;5.07;;
8478;SDS011;4276;49.354;6.804;2024-02-21T04:55:28;9.30;;;5.22;;
8478;SDS011;4276;49.354;6.804;2024-02-21T04:57:54;7.75;;;5.28;;
8478;SDS011;4276;49.354;6.804;2024-02-21T05:00:21;7.65;;;4.70;;
8478;SDS011;4276;49.354;6.804;2024-02-21T05:02:47;7.75;;;5.30;;
8478;SDS011;4276;49.354;6.804;2024-02-21T05:05:14;9.18;;;4.90;;
8478;SDS011;4276;49.354;6.804;2024-02-21T05:07:43;8.50;;;4.88;;
8478;SDS011;4276;49.354;6.804;2024-02-21T05:10:09;7.30;;;4.88;;
8478;SDS011;4276;49.354;6.804;2024-02-21T05:12:36;7.28;;;5.20;;
8478;SDS011;4276;49.354;6.804;2024-02-21T05:15:03;6.20;;;5.30;;
8478;SDS011;4276;49.354;6.804;2024-02-21T05:17:30;6.45;;;4.43;;
8478;SDS011;4276;49.354;6.804;2024-02-21T05:19:56;7.50;;;5.30;;
8478;SDS011;4276;49.354;6.804;2024-02-21T05:22:23;7.32;;;4.80;;
8478;SDS011;4276;49.354;6.804;2024-02-21T05:24:50;6.72;;;5.00;;
8478;SDS011;4276;49.354;6.804;2024-02-21T05:27:17;6.70;;;4.35;;
8478;SDS011;4276;49.354;6.804;2024-02-21T05:29:43;9.32;;;5.00;;
8478;SDS011;4276;49.354;6.804;2024-02-21T05:32:10;6.00;;;4.97;;
8478;SDS011;4276;49.354;6.804;2024-02-21T05:34:37;8.27;;;5.03;;
8478;SDS011;4276;49.354;6.804;2024-02-21T05:37:04;8.82;;;4.90;;
8478;SDS011;4276;49.354;6.804;2024-02-21T05:39:30;8.23;;;4.65;;
8478;SDS011;4276;49.354;6.804;2024-02-21T05:41:57;9.73;;;5.05;;
8478;SDS011;4276;49.354;6.804;2024-02-21T05:44:24;7.88;;;4.82;;
8478;SDS011;4276;49.354;6.804;2024-02-21T05:46:50;7.68;;;4.93;;
8478;SDS011;4276;49.354;6.804;2024-02-21T05:49:17;8.40;;;5.20;;
8478;SDS011;4276;49.354;6.804;2024-02-21T05:51:44;10.10;;;4.75;;
8478;SDS011;4276;49.354;6.804;2024-02-21T05:54:11;8.20;;;5.20;;
8478;SDS011;4276;49.354;6.804;2024-02-21T05:56:37;13.13;;;6.03;;
8478;SDS011;4276;49.354;6.804;2024-02-21T05:59:04;9.13;;;5.32;;
8478;SDS011;4276;49.354;6.804;2024-02-21T06:01:30;8.90;;;4.97;;
8478;SDS011;4276;49.354;6.804;2024-02-21T06:03:57;11.02;;;5.28;;
8478;SDS011;4276;49.354;6.804;2024-02-21T06:06:23;8.07;;;4.95;;
8478;SDS011;4276;49.354;6.804;2024-02-21T06:08:51;10.63;;;5.03;;
8478;SDS011;4276;49.354;6.804;2024-02-21T06:11:18;8.25;;;4.63;;
8478;SDS011;4276;49.354;6.804;2024-02-21T06:13:45;8.10;;;4.78;;
8478;SDS011;4276;49.354;6.804;2024-02-21T06:16:11;8.40;;;4.68;;
8478;SDS011;4276;49.354;6.804;2024-02-21T06:18:38;7.82;;;4.78;;
8478;SDS011;4276;49.354;6.804;2024-02-21T06:21:05;10.95;;;5.82;;
8478;SDS011;4276;49.354;6.804;2024-02-21T06:23:31;9.15;;;5.07;;
8478;SDS011;4276;49.354;6.804;2024-02-21T06:25:58;7.75;;;5.35;;
8478;SDS011;4276;49.354;6.804;2024-02-21T06:28:24;7.20;;;4.22;;
8478;SDS011;4276;49.354;6.804;2024-02-21T06:30:51;10.15;;;5.15;;
8478;SDS011;4276;49.354;6.804;2024-02-21T06:33:18;7.07;;;4.45;;
8478;SDS011;4276;49.354;6.804;2024-02-21T06:35:44;6.47;;;4.35;;
8478;SDS011;4276;49.354;6.804;2024-02-21T06:38:16;7.97;;;4.40;;
8478;SDS011;4276;49.354;6.804;2024-02-21T06:40:44;8.52;;;4.40;;
8478;SDS011;4276;49.354;6.804;2024-02-21T06:43:19;8.40;;;4.50;;
8478;SDS011;4276;49.354;6.804;2024-02-21T06:45:46;8.23;;;4.90;;
8478;SDS011;4276;49.354;6.804;2024-02-21T06:48:20;9.05;;;4.80;;
8478;SDS011;4276;49.354;6.804;2024-02-21T06:50:47;8.30;;;4.75;;
8478;SDS011;4276;49.354;6.804;2024-02-21T06:53:13;7.50;;;4.93;;
8478;SDS011;4276;49.354;6.804;2024-02-21T06:55:40;10.65;;;4.65;;
8478;SDS011;4276;49.354;6.804;2024-02-21T06:58:06;6.38;;;4.30;;
8478;SDS011;4276;49.354;6.804;2024-02-21T07:00:38;7.38;;;4.80;;
8478;SDS011;4276;49.354;6.804;2024-02-21T07:03:05;6.75;;;4.75;;
8478;SDS011;4276;49.354;6.804;2024-02-21T07:05:32;7.88;;;5.10;;
8478;SDS011;4276;49.354;6.804;2024-02-21T07:07:58;9.35;;;4.60;;
8478;SDS011;4276;49.354;6.804;2024-02-21T07:10:25;7.90;;;4.72;;
8478;SDS011;4276;49.354;6.804;2024-02-21T07:12:54;6.07;;;4.80;;
8478;SDS011;4276;49.354;6.804;2024-02-21T07:15:20;7.55;;;4.88;;
8478;SDS011;4276;49.354;6.804;2024-02-21T07:17:47;6.72;;;5.20;;
8478;SDS011;4276;49.354;6.804;2024-02-21T07:20:13;9.77;;;5.07;;
8478;SDS011;4276;49.354;6.804;2024-02-21T07:22:41;6.30;;;4.40;;
8478;SDS011;4276;49.354;6.804;2024-02-21T07:25:08;5.70;;;4.93;;
8478;SDS011;4276;49.354;6.804;2024-02-21T07:27:34;8.05;;;5.40;;
8478;SDS011;4276;49.354;6.804;2024-02-21T07:30:01;6.72;;;4.97;;
8478;SDS011;4276;49.354;6.804;2024-02-21T07:32:28;7.47;;;5.50;;
8478;SDS011;4276;49.354;6.804;2024-02-21T07:34:54;11.52;;;6.25;;
8478;SDS011;4276;49.354;6.804;2024-02-21T07:37:21;7.80;;;5.57;;
8478;SDS011;4276;49.354;6.804;2024-02-21T07:39:48;8.52;;;6.00;;
8478;SDS011;4276;49.354;6.804;2024-02-21T07:42:14;6.57;;;5.32;;
8478;SDS011;4276;49.354;6.804;2024-02-21T07:44:41;9.10;;;5.55;;
8478;SDS011;4276;49.354;6.804;2024-02-21T07:47:08;7.97;;;5.07;;
8478;SDS011;4276;49.354;6.804;2024-02-21T07:49:42;9.32;;;5.38;;
8478;SDS011;4276;49.354;6.804;2024-02-21T07:52:11;9.18;;;4.90;;
8478;SDS011;4276;49.354;6.804;2024-02-21T07:54:38;11.38;;;6.25;;
8478;SDS011;4276;49.354;6.804;2024-02-21T07:57:04;8.40;;;5.60;;
8478;SDS011;4276;49.354;6.804;2024-02-21T07:59:31;6.57;;;5.00;;
8478;SDS011;4276;49.354;6.804;2024-02-21T08:01:58;8.90;;;5.22;;
8478;SDS011;4276;49.354;6.804;2024-02-21T08:04:24;8.60;;;5.28;;
8478;SDS011;4276;49.354;6.804;2024-02-21T08:06:54;9.55;;;5.50;;
8478;SDS011;4276;49.354;6.804;2024-02-21T08:09:22;9.25;;;5.78;;
8478;SDS011;4276;49.354;6.804;2024-02-21T08:11:49;10.48;;;5.40;;
8478;SDS011;4276;49.354;6.804;2024-02-21T08:14:16;9.23;;;5.75;;
8478;SDS011;4276;49.354;6.804;2024-02-21T08:16:46;8.50;;;5.38;;
8478;SDS011;4276;49.354;6.804;2024-02-21T08:19:13;10.35;;;6.28;;
8478;SDS011;4276;49.354;6.804;2024-02-21T08:21:40;9.85;;;5.65;;
8478;SDS011;4276;49.354;6.804;2024-02-21T08:24:06;9.77;;;6.20;;
8478;SDS011;4276;49.354;6.804;2024-02-21T08:26:33;9.52;;;5.85;;
8478;SDS011;4276;49.354;6.804;2024-02-21T08:28:59;10.43;;;5.82;;
8478;SDS011;4276;49.354;6.804;2024-02-21T08:31:27;8.35;;;5.75;;
8478;SDS011;4276;49.354;6.804;2024-02-21T08:34:00;11.00;;;6.38;;
8478;SDS011;4276;49.354;6.804;2024-02-21T08:36:30;9.60;;;5.65;;
8478;SDS011;4276;49.354;6.804;2024-02-21T08:38:59;8.82;;;6.32;;
8478;SDS011;4276;49.354;6.804;2024-02-21T08:41:26;8.63;;;5.30;;
8478;SDS011;4276;49.354;6.804;2024-02-21T08:44:12;7.00;;;5.35;;
8478;SDS011;4276;49.354;6.804;2024-02-21T08:46:39;9.55;;;6.13;;
8478;SDS011;4276;49.354;6.804;2024-02-21T08:49:06;7.45;;;5.22;;
8478;SDS011;4276;49.354;6.804;2024-02-21T08:51:33;11.65;;;5.68;;
8478;SDS011;4276;49.354;6.804;2024-02-21T08:54:00;9.82;;;5.72;;
8478;SDS011;4276;49.354;6.804;2024-02-21T08:56:27;8.13;;;5.20;;
8478;SDS011;4276;49.354;6.804;2024-02-21T08:58:53;8.40;;;5.15;;
8478;SDS011;4276;49.354;6.804;2024-02-21T09:01:20;8.80;;;6.38;;
8478;SDS011;4276;49.354;6.804;2024-02-21T09:03:47;11.75;;;6.00;;
8478;SDS011;4276;49.354;6.804;2024-02-21T09:06:14;12.38;;;6.85;;
8478;SDS011;4276;49.354;6.804;2024-02-21T09:08:40;9.00;;;5.40;;
8478;SDS011;4276;49.354;6.804;2024-02-21T09:11:07;10.13;;;6.70;;
8478;SDS011;4276;49.354;6.804;2024-02-21T09:13:33;11.32;;;5.78;;
8478;SDS011;4276;49.354;6.804;2024-02-21T09:16:00;7.65;;;6.15;;
8478;SDS011;4276;49.354;6.804;2024-02-21T09:18:28;10.20;;;5.45;;
8478;SDS011;4276;49.354;6.804;2024-02-21T09:20:56;8.93;;;5.45;;
8478;SDS011;4276;49.354;6.804;2024-02-21T09:23:25;7.32;;;5.53;;
8478;SDS011;4276;49.354;6.804;2024-02-21T09:25:52;7.57;;;5.38;;
8478;SDS011;4276;49.354;6.804;2024-02-21T09:28:18;8.57;;;6.05;;
8478;SDS011;4276;49.354;6.804;2024-02-21T09:30:45;7.53;;;5.75;;
8478;SDS011;4276;49.354;6.804;2024-02-21T09:33:12;9.02;;;5.63;;
8478;SDS011;4276;49.354;6.804;2024-02-21T09:35:48;12.10;;;5.97;;
8478;SDS011;4276;49.354;6.804;2024-02-21T09:38:16;8.27;;;5.15;;
8478;SDS011;4276;49.354;6.804;2024-02-21T09:40:42;7.13;;;4.82;;
8478;SDS011;4276;49.354;6.804;2024-02-21T09:43:10;11.25;;;5.57;;
8478;SDS011;4276;49.354;6.804;2024-02-21T09:45:36;7.90;;;4.78;;
8478;SDS011;4276;49.354;6.804;2024-02-21T09:50:43;9.38;;;5.28;;
8478;SDS011;4276;49.354;6.804;2024-02-21T09:53:14;8.80;;;4.72;;
8478;SDS011;4276;49.354;6.804;2024-02-21T09:55:40;8.38;;;5.10;;
8478;SDS011;4276;49.354;6.804;2024-02-21T09:58:07;9.80;;;5.63;;
8478;SDS011;4276;49.354;6.804;2024-02-21T10:00:37;8.80;;;4.75;;
8478;SDS011;4276;49.354;6.804;2024-02-21T10:03:04;7.05;;;4.80;;
8478;SDS011;4276;49.354;6.804;2024-02-21T10:05:36;6.78;;;4.78;;
8478;SDS011;4276;49.354;6.804;2024-02-21T10:08:04;6.78;;;4.40;;
8478;SDS011;4276;49.354;6.804;2024-02-21T10:10:44;8.00;;;4.55;;
8478;SDS011;4276;49.354;6.804;2024-02-21T10:13:21;7.18;;;4.38;;
8478;SDS011;4276;49.354;6.804;2024-02-21T10:16:00;9.48;;;5.28;;
8478;SDS011;4276;49.354;6.804;2024-02-21T10:18:30;6.35;;;4.53;;
8478;SDS011;4276;49.354;6.804;2024-02-21T10:26:13;10.82;;;4.78;;
8478;SDS011;4276;49.354;6.804;2024-02-21T10:28:41;9.85;;;4.82;;
8478;SDS011;4276;49.354;6.804;2024-02-21T10:31:09;9.18;;;4.90;;
8478;SDS011;4276;49.354;6.804;2024-02-21T10:33:37;6.00;;;4.60;;
8478;SDS011;4276;49.354;6.804;2024-02-21T10:36:10;7.90;;;4.30;;
8478;SDS011;4276;49.354;6.804;2024-02-21T10:38:37;8.43;;;4.25;;
8478;SDS011;4276;49.354;6.804;2024-02-21T10:41:05;7.35;;;4.13;;
8478;SDS011;4276;49.354;6.804;2024-02-21T10:43:37;7.93;;;4.50;;
8478;SDS011;4276;49.354;6.804;2024-02-21T10:46:08;7.38;;;4.30;;
8478;SDS011;4276;49.354;6.804;2024-02-21T10:48:42;7.90;;;4.45;;
8478;SDS011;4276;49.354;6.804;2024-02-21T10:51:17;7.00;;;4.00;;
8478;SDS011;4276;49.354;6.804;2024-02-21T10:56:43;6.57;;;4.20;;
8478;SDS011;4276;49.354;6.804;2024-02-21T10:59:10;6.35;;;4.63;;
8478;SDS011;4276;49.354;6.804;2024-02-21T11:01:37;8.25;;;4.22;;
8478;SDS011;4276;49.354;6.804;2024-02-21T11:04:06;6.72;;;4.32;;
8478;SDS011;4276;49.354;6.804;2024-02-21T11:06:37;7.18;;;4.40;;
8478;SDS011;4276;49.354;6.804;2024-02-21T11:09:10;6.85;;;4.28;;
8478;SDS011;4276;49.354;6.804;2024-02-21T11:11:38;9.23;;;4.18;;
8478;SDS011;4276;49.354;6.804;2024-02-21T11:14:10;4.70;;;3.70;;
8478;SDS011;4276;49.354;6.804;2024-02-21T11:16:43;9.02;;;4.00;;
8478;SDS011;4276;49.354;6.804;2024-02-21T11:19:24;5.15;;;3.80;;
8478;SDS011;4276;49.354;6.804;2024-02-21T11:21:52;5.70;;;3.47;;
8478;SDS011;4276;49.354;6.804;2024-02-21T11:24:30;8.75;;;4.18;;
8478;SDS011;4276;49.354;6.804;2024-02-21T11:27:16;7.20;;;4.00;;
8478;SDS011;4276;49.354;6.804;2024-02-21T11:29:47;7.10;;;4.15;;
8478;SDS011;4276;49.354;6.804;2024-02-21T11:32:21;7.63;;;3.78;;
8478;SDS011;4276;49.354;6.804;2024-02-21T11:34:54;8.57;;;4.30;;
8478;SDS011;4276;49.354;6.804;2024-02-21T11:37:29;9.30;;;4.07;;
8478;SDS011;4276;49.354;6.804;2024-02-21T11:40:03;7.30;;;3.75;;
8478;SDS011;4276;49.354;6.804;2024-02-21T11:42:30;7.15;;;3.45;;
8478;SDS011;4276;49.354;6.804;2024-02-21T11:44:57;8.27;;;4.32;;
8478;SDS011;4276;49.354;6.804;2024-02-21T11:47:30;6.90;;;4.20;;
8478;SDS011;4276;49.354;6.804;2024-02-21T11:49:57;5.05;;;3.92;;
8478;SDS011;4276;49.354;6.804;2024-02-21T11:52:24;7.13;;;4.13;;
8478;SDS011;4276;49.354;6.804;2024-02-21T11:54:53;6.03;;;4.25;;
8478;SDS011;4276;49.354;6.804;2024-02-21T11:57:20;9.13;;;4.15;;
8478;SDS011;4276;49.354;6.804;2024-02-21T11:59:47;6.60;;;3.80;;
8478;SDS011;4276;49.354;6.804;2024-02-21T12:02:15;6.00;;;4.20;;
8478;SDS011;4276;49.354;6.804;2024-02-21T12:04:42;6.78;;;3.85;;
8478;SDS011;4276;49.354;6.804;2024-02-21T12:07:09;5.47;;;4.03;;
8478;SDS011;4276;49.354;6.804;2024-02-21T12:09:36;4.72;;;3.67;;
8478;SDS011;4276;49.354;6.804;2024-02-21T12:12:03;7.63;;;4.18;;
8478;SDS011;4276;49.354;6.804;2024-02-21T12:14:33;6.97;;;3.72;;
8478;SDS011;4276;49.354;6.804;2024-02-21T12:17:00;5.85;;;3.63;;
8478;SDS011;4276;49.354;6.804;2024-02-21T12:19:31;6.68;;;3.90;;
8478;SDS011;4276;49.354;6.804;2024-02-21T12:22:01;5.43;;;3.88;;
8478;SDS011;4276;49.354;6.804;2024-02-21T12:24:32;5.65;;;3.65;;
8478;SDS011;4276;49.354;6.804;2024-02-21T12:26:59;6.47;;;4.22;;
8478;SDS011;4276;49.354;6.804;2024-02-21T12:29:26;6.55;;;3.90;;
8478;SDS011;4276;49.354;6.804;2024-02-21T12:31:53;6.63;;;4.18;;
8478;SDS011;4276;49.354;6.804;2024-02-21T12:34:21;6.00;;;3.85;;
8478;SDS011;4276;49.354;6.804;2024-02-21T12:37:03;8.23;;;3.78;;
8478;SDS011;4276;49.354;6.804;2024-02-21T12:39:30;6.63;;;3.95;;
8478;SDS011;4276;49.354;6.804;2024-02-21T12:41:58;5.53;;;4.10;;
8478;SDS011;4276;49.354;6.804;2024-02-21T12:44:24;8.77;;;4.45;;
8478;SDS011;4276;49.354;6.804;2024-02-21T12:46:51;6.40;;;4.50;;
8478;SDS011;4276;49.354;6.804;2024-02-21T12:49:20;6.80;;;3.65;;
8478;SDS011;4276;49.354;6.804;2024-02-21T12:51:47;8.02;;;4.35;;
8478;SDS011;4276;49.354;6.804;2024-02-21T12:54:13;8.85;;;4.47;;
8478;SDS011;4276;49.354;6.804;2024-02-21T12:56:40;6.75;;;4.15;;
8478;SDS011;4276;49.354;6.804;2024-02-21T12:59:07;5.18;;;3.97;;
8478;SDS011;4276;49.354;6.804;2024-02-21T13:01:36;4.82;;;3.70;;
8478;SDS011;4276;49.354;6.804;2024-02-21T13:04:04;8.95;;;4.68;;
8478;SDS011;4276;49.354;6.804;2024-02-21T13:06:30;5.15;;;4.18;;
8478;SDS011;4276;49.354;6.804;2024-02-21T13:08:57;5.95;;;4.30;;
8478;SDS011;4276;49.354;6.804;2024-02-21T13:11:25;9.68;;;4.53;;
8478;SDS011;4276;49.354;6.804;2024-02-21T13:13:54;6.00;;;4.32;;
8478;SDS011;4276;49.354;6.804;2024-02-21T13:16:21;8.07;;;4.47;;
8478;SDS011;4276;49.354;6.804;2024-02-21T13:18:48;7.15;;;4.57;;
8478;SDS011;4276;49.354;6.804;2024-02-21T13:21:15;5.50;;;4.30;;
8478;SDS011;4276;49.354;6.804;2024-02-21T13:23:42;5.65;;;3.90;;
8478;SDS011;4276;49.354;6.804;2024-02-21T13:26:10;5.90;;;4.25;;
8478;SDS011;4276;49.354;6.804;2024-02-21T13:28:37;6.47;;;3.80;;
8478;SDS011;4276;49.354;6.804;2024-02-21T13:31:04;5.72;;;3.78;;
8478;SDS011;4276;49.354;6.804;2024-02-21T13:33:30;6.55;;;4.55;;
8478;SDS011;4276;49.354;6.804;2024-02-21T13:35:57;5.72;;;4.38;;
8478;SDS011;4276;49.354;6.804;2024-02-21T13:38:24;6.80;;;4.57;;
8478;SDS011;4276;49.354;6.804;2024-02-21T13:40:51;6.43;;;4.18;;
8478;SDS011;4276;49.354;6.804;2024-02-21T13:43:17;5.90;;;4.03;;
8478;SDS011;4276;49.354;6.804;2024-02-21T13:45:54;6.65;;;4.22;;
8478;SDS011;4276;49.354;6.804;2024-02-21T13:48:25;5.03;;;4.53;;
8478;SDS011;4276;49.354;6.804;2024-02-21T13:50:53;6.68;;;4.07;;
8478;SDS011;4276;49.354;6.804;2024-02-21T13:53:20;6.50;;;4.18;;
8478;SDS011;4276;49.354;6.804;2024-02-21T13:55:47;5.53;;;3.85;;
8478;SDS011;4276;49.354;6.804;2024-02-21T13:58:14;8.38;;;4.72;;
8478;SDS011;4276;49.354;6.804;2024-02-21T14:00:41;5.95;;;4.40;;
8478;SDS011;4276;49.354;6.804;2024-02-21T14:03:08;5.28;;;4.10;;
8478;SDS011;4276;49.354;6.804;2024-02-21T14:05:36;7.20;;;4.97;;
8478;SDS011;4276;49.354;6.804;2024-02-21T14:08:06;5.93;;;3.63;;
8478;SDS011;4276;49.354;6.804;2024-02-21T14:10:33;5.68;;;3.85;;
8478;SDS011;4276;49.354;6.804;2024-02-21T14:13:00;5.32;;;4.13;;
8478;SDS011;4276;49.354;6.804;2024-02-21T14:15:27;6.25;;;4.55;;
8478;SDS011;4276;49.354;6.804;2024-02-21T14:17:53;6.03;;;4.10;;
8478;SDS011;4276;49.354;6.804;2024-02-21T14:20:21;5.55;;;3.65;;
8478;SDS011;4276;49.354;6.804;2024-02-21T14:22:48;3.65;;;3.25;;
8478;SDS011;4276;49.354;6.804;2024-02-21T14:25:15;5.88;;;3.28;;
8478;SDS011;4276;49.354;6.804;2024-02-21T14:27:42;5.60;;;3.58;;
8478;SDS011;4276;49.354;6.804;2024-02-21T14:30:10;3.55;;;3.10;;
8478;SDS011;4276;49.354;6.804;2024-02-21T14:32:37;3.60;;;2.90;;
8478;SDS011;4276;49.354;6.804;2024-02-21T14:35:04;5.72;;;3.42;;
8478;SDS011;4276;49.354;6.804;2024-02-21T14:37:32;3.83;;;3.08;;
8478;SDS011;4276;49.354;6.804;2024-02-21T14:39:59;4.78;;;3.13;;
8478;SDS011;4276;49.354;6.804;2024-02-21T14:42:27;4.38;;;2.95;;
8478;SDS011;4276;49.354;6.804;2024-02-21T14:44:53;3.88;;;2.97;;
8478;SDS011;4276;49.354;6.804;2024-02-21T14:47:20;7.35;;;3.33;;
8478;SDS011;4276;49.354;6.804;2024-02-21T14:49:46;5.03;;;3.38;;
8478;SDS011;4276;49.354;6.804;2024-02-21T14:52:13;5.75;;;3.28;;
8478;SDS011;4276;49.354;6.804;2024-02-21T14:54:40;6.63;;;4.07;;
8478;SDS011;4276;49.354;6.804;2024-02-21T14:57:10;5.05;;;3.53;;
8478;SDS011;4276;49.354;6.804;2024-02-21T14:59:37;6.25;;;4.15;;
8478;SDS011;4276;49.354;6.804;2024-02-21T15:02:04;6.18;;;4.35;;
8478;SDS011;4276;49.354;6.804;2024-02-21T15:04:30;4.60;;;4.15;;
8478;SDS011;4276;49.354;6.804;2024-02-21T15:06:58;5.50;;;4.35;;
8478;SDS011;4276;49.354;6.804;2024-02-21T15:09:24;13.73;;;12.32;;
8478;SDS011;4276;49.354;6.804;2024-02-21T15:11:50;5.47;;;4.43;;
8478;SDS011;4276;49.354;6.804;2024-02-21T15:14:17;5.97;;;3.95;;
8478;SDS011;4276;49.354;6.804;2024-02-21T15:16:46;4.30;;;3.58;;
8478;SDS011;4276;49.354;6.804;2024-02-21T15:19:12;6.63;;;4.93;;
8478;SDS011;4276;49.354;6.804;2024-02-21T15:21:39;4.85;;;4.32;;
8478;SDS011;4276;49.354;6.804;2024-02-21T15:24:05;7.95;;;5.07;;
8478;SDS011;4276;49.354;6.804;2024-02-21T15:26:32;5.47;;;3.97;;